Long Beach, Mississippi
Current Conditions -  °F | °C
As of 7:25 PM on Monday 22 Dec 2014 (Local Time) from KGPT Reporting Station
Haze Haze  
Wind Chill: 66°   Ceiling: 2900
Heat Index: 66°   Visibility: 6mi
Dew Point: 64°   Wind: 8mph
Humidity: 93%   Direction: 200°SSW
Pressure: 29.75"   Gusts: NA
Location:  30.35°N, 89.15°W
Report Text: KGPT 230125Z 20007KT 6SM BR FEW006 SCT021 OVC029 19/18 A2975 RMK AO2 T01890178
Loading
Personal Weather Stations






























Interactive Weather Map New forecast layout! Learn more

10-Day Weather Forecast

Advertisements
Track Severe Weather on mobile